»·PEaware :: N2587U KNYL-KONT

N2587U :: KNYL-KONT

FLIGHT INFORMATION

Flight Status: Arrived
Operator: Privately registered:
United States
More flights under this callsign
Pilot: Charles C. (26995)
Aircraft: Unknown
(TRIM)
More flights by this aircraft type
Origin: KNYL Yuma MCAS/Yuma Intl
United States
Destination: KONT Ontario Intl
United States
More flights between these airports :: More routes between these airports
Route: BZA IPL KUMBA JLI
File this flight plan on PilotEdge
Remarks:
Altitude:
(Current/Filed)
4,500ft
Speed:
(Current/Filed)
110kts
Departed: 25-Jul-20 09:16 AM
Arrived: 25-Jul-20 11:09 AM
Distance/Time
Traveled:
172nm/1:53
Distance/Time
To Go:
Arrived

Flight Plot

Page will automatically refresh every two minutes.


Map Options




Map Legend


Flown Route
Filed Route
Departure Airport
Arrival Airport
Navaid (VOR, NDB)
Fix

Horizontal Profiles

Position Reports

Time Latitude Longitude Heading Altitude Ground
Speed
25-Jul-20 09:03 32.667853 -114.599585 0 202ft 0kts
25-Jul-20 09:04 32.667853 -114.599585 0 202ft 0kts
25-Jul-20 09:05 32.667853 -114.599585 0 202ft 0kts
25-Jul-20 09:06 32.667853 -114.599585 0 202ft 0kts
25-Jul-20 09:07 32.667853 -114.599585 0 202ft 0kts
25-Jul-20 09:08 32.667853 -114.599585 0 202ft 0kts
25-Jul-20 09:09 32.667853 -114.599585 0 202ft 0kts
25-Jul-20 09:10 32.667933 -114.599572 27 202ft 6kts
25-Jul-20 09:11 32.667477 -114.599125 208 201ft 7kts
25-Jul-20 09:12 32.667327 -114.602685 277 199ft 0kts
25-Jul-20 09:13 32.667336 -114.602757 278 199ft 0kts
25-Jul-20 09:14 32.666783 -114.604028 177 196ft 21kts
25-Jul-20 09:15 32.643901 -114.606858 250 683ft 91kts
25-Jul-20 09:16 32.664402 -114.611391 14 1290ft 90kts
25-Jul-20 09:17 32.688843 -114.607290 2 1783ft 90kts
25-Jul-20 09:18 32.712580 -114.598847 28 2252ft 91kts
25-Jul-20 09:19 32.731592 -114.603753 275 2683ft 89kts
25-Jul-20 09:20 32.736035 -114.633551 303 3063ft 94kts
25-Jul-20 09:21 32.751650 -114.656870 303 3523ft 90kts
25-Jul-20 09:22 32.757970 -114.685371 272 3923ft 93kts
25-Jul-20 09:23 32.756741 -114.715847 271 4322ft 92kts
25-Jul-20 09:24 32.765566 -114.745810 278 4432ft 106kts
25-Jul-20 09:25 32.765331 -114.782225 262 4377ft 110kts
25-Jul-20 09:26 32.760501 -114.817391 272 4389ft 106kts
25-Jul-20 09:27 32.767206 -114.850954 295 4424ft 105kts
25-Jul-20 09:28 32.782789 -114.880032 304 4464ft 104kts
25-Jul-20 09:29 32.782733 -114.913930 261 4422ft 109kts
25-Jul-20 09:30 32.778183 -114.949048 255 4442ft 108kts
25-Jul-20 09:31 32.776372 -114.983907 300 4411ft 110kts
25-Jul-20 09:32 32.787546 -114.975254 174 3905ft 128kts
25-Jul-20 09:33 32.800363 -114.988955 310 3549ft 103kts
25-Jul-20 09:34 32.799833 -115.020729 248 4004ft 104kts
25-Jul-20 09:35 32.787250 -115.052450 241 4519ft 114kts
25-Jul-20 09:36 32.768828 -115.082936 242 4902ft 122kts
25-Jul-20 09:37 32.772128 -115.124487 280 4397ft 103kts
25-Jul-20 09:38 32.773049 -115.159779 264 4512ft 109kts
25-Jul-20 09:39 32.772310 -115.197003 273 4492ft 118kts
25-Jul-20 09:40 32.771755 -115.235639 261 4512ft 121kts
25-Jul-20 09:41 32.771083 -115.275500 288 4495ft 120kts
25-Jul-20 09:42 32.779447 -115.313034 268 4460ft 119kts
25-Jul-20 09:43 32.777069 -115.352869 263 4291ft 119kts
25-Jul-20 09:44 32.772099 -115.389459 258 4463ft 112kts
25-Jul-20 09:45 32.767552 -115.426289 260 4509ft 112kts
25-Jul-20 09:46 32.761686 -115.462992 255 4522ft 113kts
25-Jul-20 09:47 32.753687 -115.499214 253 4463ft 113kts
25-Jul-20 09:48 32.744764 -115.535123 257 4399ft 113kts
25-Jul-20 09:49 32.745026 -115.571931 269 4321ft 114kts
25-Jul-20 09:50 32.750871 -115.607301 286 4377ft 107kts
25-Jul-20 09:51 32.759990 -115.641027 289 4449ft 107kts
25-Jul-20 09:52 32.764107 -115.678028 277 4500ft 116kts
25-Jul-20 09:53 32.768134 -115.715871 277 4450ft 113kts
25-Jul-20 09:54 32.772549 -115.753028 269 4366ft 111kts
25-Jul-20 09:55 32.770651 -115.789578 258 4381ft 110kts
25-Jul-20 09:56 32.762838 -115.825887 254 4400ft 114kts
25-Jul-20 09:57 32.752738 -115.861925 257 4356ft 111kts
25-Jul-20 09:58 32.746466 -115.897423 252 4416ft 109kts
25-Jul-20 09:59 32.740409 -115.930647 271 4461ft 109kts
25-Jul-20 10:00 32.742958 -115.967219 269 4386ft 112kts
25-Jul-20 10:01 32.749319 -116.001479 300 4956ft 109kts
25-Jul-20 10:02 32.763530 -116.033224 296 5441ft 110kts
25-Jul-20 10:03 32.780801 -116.062903 305 5908ft 111kts
25-Jul-20 10:04 32.799312 -116.091691 312 6386ft 107kts
25-Jul-20 10:05 32.819324 -116.120938 310 6429ft 117kts
25-Jul-20 10:06 32.840470 -116.150043 310 6265ft 116kts
25-Jul-20 10:07 32.860151 -116.178358 325 6262ft 110kts
25-Jul-20 10:08 32.881115 -116.202263 296 6329ft 111kts
25-Jul-20 10:09 32.895677 -116.234524 314 6571ft 113kts
25-Jul-20 10:10 32.922079 -116.227691 345 6573ft 117kts
25-Jul-20 10:11 32.937730 -116.260808 307 6624ft 109kts
25-Jul-20 10:12 32.955919 -116.292218 296 6467ft 121kts
25-Jul-20 10:13 32.976113 -116.322665 310 6488ft 114kts
25-Jul-20 10:14 32.992703 -116.354407 298 6523ft 113kts
25-Jul-20 10:15 33.011998 -116.383991 305 6416ft 115kts
25-Jul-20 10:16 33.019704 -116.419084 288 6431ft 111kts
25-Jul-20 10:17 33.037344 -116.447497 304 6457ft 110kts
25-Jul-20 10:18 33.055217 -116.477439 308 6418ft 112kts
25-Jul-20 10:19 33.071539 -116.508385 303 6402ft 112kts
25-Jul-20 10:20 33.086526 -116.539710 300 6479ft 107kts
25-Jul-20 10:21 33.100717 -116.570192 298 6575ft 98kts
25-Jul-20 10:22 33.119090 -116.597529 302 6535ft 111kts
25-Jul-20 10:23 33.136691 -116.626031 324 6600ft 108kts
25-Jul-20 10:24 33.164895 -116.637878 348 6602ft 109kts
25-Jul-20 10:25 33.192911 -116.651922 337 6621ft 109kts
25-Jul-20 10:26 33.220211 -116.669392 329 6604ft 112kts
25-Jul-20 10:27 33.245300 -116.690931 319 6621ft 114kts
25-Jul-20 10:28 33.269360 -116.714091 331 6647ft 112kts
25-Jul-20 10:29 33.297991 -116.718225 9 6819ft 104kts
25-Jul-20 10:30 33.325197 -116.740174 319 6424ft 119kts
25-Jul-20 10:31 33.351426 -116.762284 327 6357ft 115kts
25-Jul-20 10:32 33.373477 -116.787995 303 6384ft 109kts
25-Jul-20 10:33 33.394723 -116.815283 311 6303ft 111kts
25-Jul-20 10:34 33.415776 -116.847480 309 5568ft 122kts
25-Jul-20 10:35 33.438876 -116.879389 309 4591ft 126kts
25-Jul-20 10:36 33.459421 -116.909992 316 4462ft 112kts
25-Jul-20 10:37 33.480667 -116.934370 314 4658ft 103kts
25-Jul-20 10:38 33.501686 -116.960207 313 4630ft 113kts
25-Jul-20 10:39 33.523731 -116.986272 314 4635ft 111kts
25-Jul-20 10:40 33.544485 -117.013357 318 4621ft 113kts
25-Jul-20 10:41 33.570968 -117.032979 338 4598ft 111kts
25-Jul-20 10:42 33.601201 -117.043570 342 4472ft 116kts
25-Jul-20 10:43 33.631188 -117.054670 354 4465ft 112kts
25-Jul-20 10:44 33.657258 -117.073342 313 4454ft 112kts
25-Jul-20 10:45 33.679615 -117.097743 326 4586ft 104kts
25-Jul-20 10:46 33.701230 -117.120262 312 4801ft 98kts
25-Jul-20 10:47 33.722176 -117.145244 325 4834ft 104kts
25-Jul-20 10:48 33.746762 -117.171356 315 4532ft 116kts
25-Jul-20 10:49 33.756003 -117.203450 244 4442ft 118kts
25-Jul-20 10:50 33.741000 -117.238277 238 4393ft 114kts
25-Jul-20 10:51 33.724238 -117.272487 244 4192ft 120kts
25-Jul-20 10:52 33.715558 -117.308911 289 4267ft 107kts
25-Jul-20 10:53 33.739718 -117.330066 342 4267ft 113kts
25-Jul-20 10:54 33.768704 -117.318938 25 4303ft 110kts
25-Jul-20 10:55 33.798627 -117.308727 7 4288ft 112kts
25-Jul-20 10:56 33.828194 -117.321002 328 3886ft 135kts
25-Jul-20 10:57 33.862867 -117.334098 357 3210ft 108kts
25-Jul-20 10:58 33.893111 -117.339006 347 2824ft 121kts
25-Jul-20 10:59 33.911789 -117.372789 293 2373ft 122kts
25-Jul-20 11:00 33.926156 -117.404410 289 2538ft 111kts
25-Jul-20 11:01 33.952424 -117.419226 341 2682ft 107kts
25-Jul-20 11:02 33.969027 -117.449152 298 2718ft 112kts
25-Jul-20 11:03 33.988551 -117.476791 306 2769ft 115kts
25-Jul-20 11:04 34.010098 -117.505037 316 2355ft 113kts
25-Jul-20 11:05 34.032480 -117.530164 316 1497ft 106kts
25-Jul-20 11:06 34.047772 -117.551543 313 1320ft 69kts
25-Jul-20 11:07 34.054628 -117.573971 271 1116ft 75kts
25-Jul-20 11:08 34.054779 -117.593242 242 920ft 18kts
25-Jul-20 11:09 34.053845 -117.598646 268 917ft 19kts
25-Jul-20 11:10 34.053100 -117.599326 142 914ft 0kts
25-Jul-20 11:11 34.053100 -117.599326 142 914ft 0kts
25-Jul-20 11:12 34.053100 -117.599326 142 914ft 0kts

Navigation Log

Ident Type
Flight plan parsing failed, navigation log unavailable